This is the latest recevied weather packets stored in our database for station/object AF5AA. If no packets are shown the sender has not sent any weather packets the latest 10 day(s).
| Time | Temp. | Humidity | Pressure | Rain* | Wind** | Luminosity | Snow |
|---|---|---|---|---|---|---|---|
| 1777488940 | 20.56° C | 91% | 1011.7 hPa | 0 mm | - | 42 W/m² | - |
| 1777488637 | 20.56° C | 92% | 1011.8 hPa | 0 mm | - | 62 W/m² | - |
| 1777488335 | 20.56° C | 91% | 1011.9 hPa | 0 mm | - | 37 W/m² | - |
| 1777488033 | 21.11° C | 90% | 1012.4 hPa | 0 mm | - | 33 W/m² | - |
| 1777487730 | 21.11° C | 91% | 1012.5 hPa | 0 mm | - | 24 W/m² | - |
| 1777487428 | 21.11° C | 90% | 1012.4 hPa | 0 mm | - | 28 W/m² | - |
| 1777487125 | 21.67° C | 91% | 1012.9 hPa | 0 mm | - | 23 W/m² | - |
| 1777486820 | 21.67° C | 90% | 1013 hPa | 0 mm | - | 19 W/m² | - |
| 1777486518 | 21.67° C | 90% | 1013 hPa | 0 mm | - | 45 W/m² | - |
| 1777486216 | 21.67° C | 90% | 1012.9 hPa | 0 mm | - | 94 W/m² | - |
| 1777485913 | 21.11° C | 90% | 1012.8 hPa | 0 mm | - | 118 W/m² | - |
| 1777485609 | 21.11° C | 91% | 1013 hPa | 0 mm | - | 118 W/m² | - |
| 1777485304 | 21.11° C | 91% | 1013.4 hPa | 0 mm | - | 36 W/m² | - |
| 1777485001 | 21.67° C | 91% | 1013.6 hPa | 0 mm | - | 31 W/m² | - |
| 1777484698 | 21.67° C | 91% | 1013.3 hPa | 0 mm | - | 53 W/m² | - |
| 1777484394 | 21.67° C | 90% | 1013.3 hPa | 0 mm | - | 48 W/m² | - |
| 1777484090 | 21.67° C | 90% | 1013.2 hPa | 0 mm | - | 61 W/m² | - |
| 1777483787 | 21.67° C | 90% | 1013.1 hPa | 0 mm | - | 64 W/m² | - |
| 1777483484 | 21.67° C | 90% | 1013.1 hPa | 0 mm | - | 64 W/m² | - |
| 1777483179 | 21.67° C | 90% | 1013.2 hPa | 0 mm | - | 86 W/m² | - |
| 1777482876 | 21.67° C | 92% | 1013 hPa | 0 mm | - | 99 W/m² | - |
| 1777482571 | 21.11° C | 92% | 1012.4 hPa | 0 mm | - | 118 W/m² | - |
| 1777482269 | 21.11° C | 92% | 1012.8 hPa | 0 mm | - | 53 W/m² | - |
| 1777481966 | 21.11° C | 92% | 1012.9 hPa | 0 mm | - | 67 W/m² | - |
| 1777481664 | 20.56° C | 93% | 1012.5 hPa | 0 mm | - | 59 W/m² | - |
* Rain latest hour (hover to see other rain measurements)
** Current wind speed in m/s (hover to see current wind gust speed)